createdAt,value
2022-12-12T00:01:20.593Z,16.20
2022-12-12T00:03:47.326Z,13.30
2022-12-12T00:06:13.817Z,15.20
2022-12-12T00:08:40.277Z,13.43
2022-12-12T00:11:07.627Z,10.33
2022-12-12T00:13:34.672Z,11.70
2022-12-12T00:16:01.273Z,11.90
2022-12-12T00:18:27.909Z,12.77
2022-12-12T00:20:56.575Z,11.90
2022-12-12T00:23:24.370Z,10.40
2022-12-12T00:25:59.472Z,10.53
2022-12-12T00:28:26.117Z,10.50
2022-12-12T00:30:52.786Z,10.00
2022-12-12T00:33:19.880Z,8.93
2022-12-12T00:35:50.289Z,11.30
2022-12-12T00:38:17.919Z,10.20
2022-12-12T00:40:44.713Z,9.57
2022-12-12T00:43:11.143Z,9.57
2022-12-12T00:45:38.121Z,9.17
2022-12-12T00:48:06.027Z,9.77
2022-12-12T00:50:33.480Z,10.30
2022-12-12T00:53:00.055Z,9.77
2022-12-12T00:55:27.603Z,10.37
2022-12-12T00:57:54.049Z,9.80
2022-12-12T01:00:21.731Z,8.90
2022-12-12T01:02:49.517Z,9.73
2022-12-12T01:05:16.407Z,10.47
2022-12-12T01:07:43.479Z,10.27
2022-12-12T01:10:10.303Z,10.03
2022-12-12T01:12:36.805Z,9.03
2022-12-12T01:15:06.346Z,10.70
2022-12-12T01:17:37.862Z,9.60
2022-12-12T01:20:07.470Z,8.83
2022-12-12T01:22:34.134Z,9.93
2022-12-12T01:25:00.817Z,9.47
2022-12-12T01:27:27.839Z,9.80
2022-12-12T01:29:55.980Z,10.60
2022-12-12T01:32:22.444Z,9.37
2022-12-12T01:34:48.851Z,11.00
2022-12-12T01:37:15.220Z,9.13
2022-12-12T01:39:41.620Z,10.80
2022-12-12T01:42:16.821Z,9.10
2022-12-12T01:44:44.771Z,9.13
2022-12-12T01:47:20.214Z,10.17
2022-12-12T01:49:54.610Z,10.40
2022-12-12T01:52:30.899Z,9.80
2022-12-12T01:55:01.926Z,9.20
2022-12-12T01:57:34.184Z,9.90
2022-12-12T02:00:04.849Z,9.20
2022-12-12T02:02:31.384Z,8.07
2022-12-12T02:05:02.496Z,10.00
2022-12-12T02:10:04.618Z,10.77
2022-12-12T02:12:31.173Z,8.63
2022-12-12T02:14:57.653Z,8.43
2022-12-12T02:17:48.434Z,7.83
2022-12-12T02:20:33.981Z,9.60
2022-12-12T02:23:18.462Z,9.73
2022-12-12T02:26:09.312Z,8.47
2022-12-12T02:29:04.595Z,8.40
2022-12-12T02:31:57.530Z,8.93
2022-12-12T02:34:40.441Z,8.33
2022-12-12T02:37:19.446Z,8.07
2022-12-12T02:40:03.904Z,8.70
2022-12-12T02:43:09.171Z,8.67
2022-12-12T02:46:04.201Z,8.17
2022-12-12T02:48:37.146Z,10.07
2022-12-12T02:51:06.974Z,9.23
2022-12-12T02:53:33.514Z,9.53
2022-12-12T02:56:27.442Z,8.90
2022-12-12T02:58:53.923Z,11.40
2022-12-12T03:01:37.317Z,8.70
2022-12-12T03:04:40.238Z,8.30
2022-12-12T03:07:46.869Z,8.77
2022-12-12T03:10:38.844Z,8.10
2022-12-12T03:13:17.900Z,9.13
2022-12-12T03:16:06.682Z,8.90
2022-12-12T03:18:40.258Z,9.20
2022-12-12T03:21:16.488Z,9.83
2022-12-12T03:23:49.498Z,8.80
2022-12-12T03:26:28.137Z,8.60
2022-12-12T03:29:03.894Z,9.37
2022-12-12T03:31:32.614Z,9.23
2022-12-12T03:34:04.967Z,8.40
2022-12-12T03:36:39.588Z,9.10
2022-12-12T03:39:26.765Z,9.40
2022-12-12T03:42:21.816Z,9.20
2022-12-12T03:44:55.502Z,8.57
2022-12-12T03:47:28.632Z,8.53
2022-12-12T03:50:03.527Z,8.87
2022-12-12T03:52:43.370Z,8.57
2022-12-12T03:55:15.225Z,7.97
2022-12-12T03:57:51.598Z,9.07
2022-12-12T04:00:18.228Z,9.00
2022-12-12T04:03:26.445Z,9.23
2022-12-12T04:06:20.024Z,7.83
2022-12-12T04:09:05.895Z,7.50
2022-12-12T04:11:59.800Z,10.03
2022-12-12T04:14:26.161Z,7.30
2022-12-12T04:17:00.912Z,7.93
2022-12-12T04:19:57.527Z,11.20
2022-12-12T04:22:46.498Z,12.33
2022-12-12T04:25:31.347Z,11.63
2022-12-12T04:28:05.859Z,10.00
2022-12-12T04:30:34.991Z,9.30
2022-12-12T04:33:07.935Z,8.50
2022-12-12T04:35:39.497Z,9.20
2022-12-12T04:38:24.249Z,10.40
2022-12-12T04:40:55.461Z,8.40
2022-12-12T04:43:28.894Z,11.07
2022-12-12T04:46:08.894Z,9.70
2022-12-12T04:48:45.992Z,9.33
2022-12-12T04:51:16.474Z,8.87
2022-12-12T04:53:54.843Z,9.83
2022-12-12T04:56:26.943Z,7.90
2022-12-12T04:58:53.473Z,8.87
2022-12-12T05:01:32.273Z,8.43
2022-12-12T05:04:03.230Z,9.10
2022-12-12T05:07:02.382Z,8.30
2022-12-12T05:09:28.891Z,9.30
2022-12-12T05:11:55.709Z,9.40
2022-12-12T05:14:22.150Z,8.77
2022-12-12T05:16:55.269Z,8.93
2022-12-12T05:19:21.672Z,9.27
2022-12-12T05:21:49.128Z,7.67
2022-12-12T05:24:15.577Z,9.03
2022-12-12T05:26:42.045Z,10.17
2022-12-12T05:29:08.496Z,8.33
2022-12-12T05:31:35.744Z,8.80
2022-12-12T05:34:02.301Z,8.40
2022-12-12T05:36:28.757Z,9.90
2022-12-12T05:38:55.303Z,8.63
2022-12-12T05:41:21.828Z,8.63
2022-12-12T05:43:48.237Z,9.70
2022-12-12T05:46:14.821Z,9.37
2022-12-12T05:48:41.299Z,9.10
2022-12-12T05:51:07.771Z,8.93
2022-12-12T05:53:41.992Z,9.70
2022-12-12T05:56:11.297Z,8.30
2022-12-12T05:58:38.062Z,9.37
2022-12-12T06:01:05.577Z,8.70
2022-12-12T06:03:32.616Z,8.00
2022-12-12T06:05:59.639Z,8.50
2022-12-12T06:08:26.150Z,8.60
2022-12-12T06:10:52.618Z,8.00
2022-12-12T06:13:19.070Z,8.07
2022-12-12T06:15:45.588Z,9.53
2022-12-12T06:18:12.269Z,9.80
2022-12-12T06:20:38.838Z,9.47
2022-12-12T06:23:05.410Z,10.13
2022-12-12T06:25:31.818Z,10.00
2022-12-12T06:27:59.247Z,9.50
2022-12-12T06:30:26.250Z,11.17
2022-12-12T06:32:52.694Z,11.53
2022-12-12T06:35:19.248Z,10.70
2022-12-12T06:37:45.701Z,12.20
2022-12-12T06:40:12.648Z,11.33
2022-12-12T06:42:43.246Z,10.10
2022-12-12T06:45:13.071Z,11.27
2022-12-12T06:47:40.180Z,10.40
2022-12-12T06:50:06.869Z,11.87
2022-12-12T06:52:33.433Z,11.20
2022-12-12T06:54:59.893Z,10.70
2022-12-12T06:57:27.009Z,10.80
2022-12-12T06:59:53.359Z,10.57
2022-12-12T07:02:23.272Z,10.43
2022-12-12T07:04:55.332Z,9.77
2022-12-12T07:07:22.073Z,8.47
2022-12-12T07:09:48.751Z,9.87
2022-12-12T07:12:15.163Z,9.87
2022-12-12T07:14:41.737Z,9.87
2022-12-12T07:17:08.242Z,9.60
2022-12-12T07:19:34.754Z,10.73
2022-12-12T07:22:07.468Z,11.90
2022-12-12T07:24:36.101Z,11.43
2022-12-12T07:27:03.006Z,10.73
2022-12-12T07:29:29.568Z,12.33
2022-12-12T07:31:56.001Z,8.90
2022-12-12T07:34:22.458Z,8.97
2022-12-12T07:36:49.304Z,8.80
2022-12-12T07:39:20.736Z,10.17
2022-12-12T07:41:47.822Z,8.33
2022-12-12T07:44:16.113Z,9.30
2022-12-12T07:46:43.035Z,9.23
2022-12-12T07:49:09.570Z,9.70
2022-12-12T07:51:36.357Z,9.13
2022-12-12T07:54:05.176Z,11.03
2022-12-12T07:56:31.580Z,10.30
2022-12-12T07:58:58.066Z,11.60
2022-12-12T08:01:26.863Z,9.37
2022-12-12T08:03:54.459Z,9.13
2022-12-12T08:06:22.492Z,9.80
2022-12-12T08:08:49.911Z,9.70
2022-12-12T08:11:19.534Z,11.60
2022-12-12T08:13:46.373Z,9.53
2022-12-12T08:16:16.721Z,9.57
2022-12-12T08:18:43.754Z,10.33
2022-12-12T08:21:12.156Z,10.57
2022-12-12T08:23:39.856Z,9.30
2022-12-12T08:26:09.224Z,9.40
2022-12-12T08:28:36.524Z,8.93
2022-12-12T08:31:03.478Z,8.83
2022-12-12T08:33:30.440Z,9.00
2022-12-12T08:35:56.867Z,8.60
2022-12-12T08:38:23.322Z,9.43
2022-12-12T08:40:49.793Z,9.07
2022-12-12T08:43:16.229Z,9.60
2022-12-12T08:45:42.858Z,9.03
2022-12-12T08:48:11.960Z,10.00
2022-12-12T08:50:41.025Z,8.63
2022-12-12T08:53:07.518Z,9.47
2022-12-12T08:55:33.926Z,9.37
2022-12-12T08:58:00.350Z,10.77
2022-12-12T09:00:26.805Z,10.57
2022-12-12T09:02:53.964Z,8.70
2022-12-12T09:05:20.521Z,8.90
2022-12-12T09:07:46.937Z,10.80
2022-12-12T09:10:13.443Z,11.60
2022-12-12T09:12:41.898Z,12.73
2022-12-12T09:15:09.710Z,12.03
2022-12-12T09:17:36.234Z,12.27
2022-12-12T09:20:03.504Z,13.30
2022-12-12T09:22:29.944Z,20.43
2022-12-12T09:24:56.362Z,17.53
2022-12-12T09:27:22.901Z,14.33
2022-12-12T09:29:49.331Z,13.10
2022-12-12T09:32:16.673Z,12.13
2022-12-12T09:34:45.135Z,13.90
2022-12-12T09:37:11.608Z,12.20
2022-12-12T09:39:38.149Z,12.53
2022-12-12T09:42:16.996Z,11.43
2022-12-12T09:44:43.603Z,9.83
2022-12-12T09:47:17.644Z,18.87
2022-12-12T09:49:56.373Z,14.60
2022-12-12T09:52:32.187Z,18.03
2022-12-12T09:55:18.699Z,16.47
2022-12-12T09:58:14.451Z,13.80
2022-12-12T10:00:46.668Z,11.70
2022-12-12T10:03:31.726Z,13.87
2022-12-12T10:09:28.389Z,11.07
2022-12-12T10:11:56.667Z,11.07
2022-12-12T10:14:26.006Z,12.80
2022-12-12T10:16:57.775Z,12.80
2022-12-12T10:19:28.531Z,12.80
2022-12-12T10:21:59.346Z,13.20
2022-12-12T10:24:47.160Z,13.70
2022-12-12T10:27:14.585Z,11.50
2022-12-12T10:29:47.823Z,15.37
2022-12-12T10:32:49.599Z,15.17
2022-12-12T10:35:43.897Z,12.67
2022-12-12T10:38:48.942Z,14.47
2022-12-12T10:41:41.828Z,12.40
2022-12-12T10:44:47.182Z,12.23
2022-12-12T10:47:14.673Z,12.40
2022-12-12T10:49:42.087Z,12.30
2022-12-12T10:52:22.381Z,12.50
2022-12-12T10:54:54.555Z,12.03
2022-12-12T10:57:26.236Z,11.63
2022-12-12T10:59:57.965Z,12.90
2022-12-12T11:02:30.408Z,11.73
2022-12-12T11:05:08.940Z,11.60
2022-12-12T11:07:40.723Z,12.20
2022-12-12T11:10:34.384Z,13.20
2022-12-12T11:13:12.957Z,13.07
2022-12-12T11:15:49.426Z,11.53
2022-12-12T11:18:17.966Z,11.87
2022-12-12T11:20:55.910Z,11.47
2022-12-12T11:23:28.767Z,11.43
2022-12-12T11:26:05.712Z,11.20
2022-12-12T11:28:36.166Z,13.40
2022-12-12T11:31:10.577Z,11.20
2022-12-12T11:33:44.806Z,11.37
2022-12-12T11:36:21.002Z,11.50
2022-12-12T11:38:55.125Z,11.17
2022-12-12T11:41:22.202Z,10.93
2022-12-12T11:43:48.542Z,13.50
2022-12-12T11:46:15.000Z,11.67
2022-12-12T11:48:47.392Z,12.10
2022-12-12T11:51:29.816Z,12.00
2022-12-12T11:53:56.604Z,10.90
2022-12-12T11:56:32.787Z,11.40
2022-12-12T11:59:11.240Z,10.60
2022-12-12T12:02:16.276Z,11.13
2022-12-12T12:04:54.722Z,11.17
2022-12-12T12:07:58.594Z,10.73
2022-12-12T12:10:51.866Z,10.27
2022-12-12T12:13:32.275Z,9.43
2022-12-12T12:16:28.114Z,9.83
2022-12-12T12:19:36.258Z,10.23
2022-12-12T12:22:24.067Z,11.57
2022-12-12T12:25:05.494Z,11.40
2022-12-12T12:27:59.679Z,11.83
2022-12-12T12:30:54.501Z,11.27
2022-12-12T12:33:54.775Z,11.53
2022-12-12T12:36:25.198Z,12.53
2022-12-12T12:39:02.547Z,11.73
2022-12-12T12:41:42.988Z,10.73
2022-12-12T12:44:31.294Z,12.67
2022-12-12T12:47:25.362Z,11.90
2022-12-12T12:49:57.427Z,11.70
2022-12-12T12:52:35.568Z,10.97
2022-12-12T12:55:02.671Z,11.10
2022-12-12T12:57:31.918Z,11.20
2022-12-12T13:00:04.211Z,11.70
2022-12-12T13:02:52.542Z,13.23
2022-12-12T13:05:39.655Z,11.37
2022-12-12T13:08:17.550Z,12.30
2022-12-12T13:10:50.444Z,13.00
2022-12-12T13:13:29.631Z,11.83
2022-12-12T13:16:33.331Z,11.77
2022-12-12T13:19:12.972Z,12.00
2022-12-12T13:21:49.559Z,11.80
2022-12-12T13:24:33.560Z,14.63
2022-12-12T13:27:21.057Z,13.80
2022-12-12T13:30:06.039Z,10.90
2022-12-12T13:32:50.982Z,13.40
2022-12-12T13:35:29.885Z,11.07
2022-12-12T13:37:56.468Z,12.30
2022-12-12T13:40:30.390Z,11.50
2022-12-12T13:43:09.632Z,10.73
2022-12-12T13:45:40.316Z,10.57
2022-12-12T13:48:30.444Z,10.77
2022-12-12T13:51:28.021Z,11.50
2022-12-12T13:54:12.207Z,11.00
2022-12-12T13:57:10.450Z,11.00
2022-12-12T13:59:55.606Z,12.77
2022-12-12T14:02:34.619Z,12.57
2022-12-12T14:05:06.982Z,12.13
2022-12-12T14:07:33.662Z,10.40
2022-12-12T14:10:15.002Z,10.80
2022-12-12T14:12:41.827Z,10.63
2022-12-12T14:15:31.314Z,11.03
2022-12-12T14:18:02.681Z,10.67
2022-12-12T14:20:35.591Z,11.50
2022-12-12T14:23:12.368Z,11.57
2022-12-12T14:25:40.417Z,10.83
2022-12-12T14:28:20.627Z,11.30
2022-12-12T14:31:17.060Z,11.07
2022-12-12T14:34:16.286Z,11.77
2022-12-12T14:36:49.883Z,10.50
2022-12-12T14:39:50.448Z,12.10
2022-12-12T14:43:19.248Z,13.63
2022-12-12T14:45:53.675Z,12.10
2022-12-12T14:48:34.002Z,11.70
2022-12-12T14:51:09.709Z,12.60
2022-12-12T14:53:43.490Z,12.73
2022-12-12T14:56:29.671Z,11.43
2022-12-12T14:59:02.899Z,13.03
2022-12-12T15:01:31.660Z,12.00
2022-12-12T15:03:59.355Z,12.13
2022-12-12T15:06:35.068Z,11.00
2022-12-12T15:09:10.917Z,11.53
2022-12-12T15:11:37.787Z,12.07
2022-12-12T15:14:04.716Z,11.47
2022-12-12T15:16:55.567Z,13.70
2022-12-12T15:19:37.017Z,13.20
2022-12-12T15:22:10.320Z,12.30
2022-12-12T15:24:38.684Z,12.90
2022-12-12T15:27:06.054Z,12.67
2022-12-12T15:29:35.253Z,15.37
2022-12-12T15:32:05.539Z,15.43
2022-12-12T15:34:42.697Z,15.03
2022-12-12T15:37:20.013Z,13.53
2022-12-12T15:39:56.347Z,13.47
2022-12-12T15:42:22.966Z,11.50
2022-12-12T15:44:51.009Z,12.80
2022-12-12T15:47:19.919Z,12.23
2022-12-12T15:49:46.661Z,11.67
2022-12-12T15:52:22.514Z,11.53
2022-12-12T15:54:52.178Z,12.87
2022-12-12T15:57:22.212Z,11.53
2022-12-12T16:00:01.038Z,10.67
2022-12-12T16:02:30.567Z,11.47
2022-12-12T16:05:01.398Z,11.53
2022-12-12T16:07:29.250Z,11.27
2022-12-12T16:10:18.760Z,10.57
2022-12-12T16:13:17.715Z,10.23
2022-12-12T16:15:44.156Z,11.03
2022-12-12T16:18:17.338Z,10.23
2022-12-12T16:20:48.047Z,10.10
2022-12-12T16:23:31.429Z,10.30
2022-12-12T16:25:59.203Z,11.30
2022-12-12T16:28:30.717Z,11.30
2022-12-12T16:31:02.600Z,10.47
2022-12-12T16:33:40.190Z,9.00
2022-12-12T16:36:09.299Z,11.10
2022-12-12T16:38:36.104Z,10.23
2022-12-12T16:41:08.746Z,10.43
2022-12-12T16:43:35.260Z,9.57
2022-12-12T16:46:01.782Z,11.40
2022-12-12T16:48:38.026Z,10.60
2022-12-12T16:51:06.836Z,9.93
2022-12-12T16:53:36.738Z,12.07
2022-12-12T16:56:04.041Z,10.30
2022-12-12T16:58:30.542Z,10.43
2022-12-12T17:00:58.967Z,9.47
2022-12-12T17:03:25.871Z,10.60
2022-12-12T17:05:52.862Z,8.83
2022-12-12T17:08:19.911Z,10.47
2022-12-12T17:10:48.701Z,11.87
2022-12-12T17:13:21.135Z,10.47
2022-12-12T17:15:47.582Z,11.30
2022-12-12T17:18:14.114Z,10.93
2022-12-12T17:20:41.059Z,11.43
2022-12-12T17:23:29.892Z,11.73
2022-12-12T17:26:02.946Z,11.40
2022-12-12T17:28:32.619Z,11.60
2022-12-12T17:30:59.118Z,10.90
2022-12-12T17:33:25.954Z,11.57
2022-12-12T17:36:04.679Z,13.03
2022-12-12T17:38:31.437Z,14.00
2022-12-12T17:41:01.892Z,11.93
2022-12-12T17:43:28.299Z,11.77
2022-12-12T17:46:03.330Z,12.20
2022-12-12T17:48:31.716Z,11.27
2022-12-12T17:51:04.204Z,10.93
2022-12-12T17:53:38.341Z,12.27
2022-12-12T17:56:10.907Z,11.00
2022-12-12T17:58:40.105Z,9.97
2022-12-12T18:01:36.187Z,10.63
2022-12-12T18:04:04.319Z,9.20
2022-12-12T18:06:33.289Z,8.10
2022-12-12T18:09:01.264Z,9.73
2022-12-12T18:11:31.505Z,9.70
2022-12-12T18:14:00.380Z,12.40
2022-12-12T18:16:29.761Z,12.07
2022-12-12T18:18:56.732Z,13.57
2022-12-12T18:21:59.290Z,18.27
2022-12-12T18:24:13.562Z,16.67
2022-12-12T18:26:40.470Z,14.73
2022-12-12T18:29:08.042Z,12.83
2022-12-12T18:31:35.819Z,12.27
2022-12-12T18:34:02.439Z,11.80
2022-12-12T18:36:30.598Z,11.70
2022-12-12T18:38:58.189Z,11.50
2022-12-12T18:41:24.823Z,11.43
2022-12-12T18:43:51.252Z,12.17
2022-12-12T18:46:19.757Z,12.43
2022-12-12T18:48:47.603Z,11.57
2022-12-12T18:51:19.465Z,11.50
2022-12-12T18:53:46.954Z,11.80
2022-12-12T18:56:19.377Z,10.20
2022-12-12T18:58:46.193Z,10.20
2022-12-12T19:01:17.507Z,10.73
2022-12-12T19:03:45.542Z,10.83
2022-12-12T19:06:15.112Z,10.93
2022-12-12T19:08:42.370Z,9.63
2022-12-12T19:11:09.781Z,11.67
2022-12-12T19:13:37.011Z,11.80
2022-12-12T19:16:17.134Z,13.67
2022-12-12T19:18:44.465Z,12.47
2022-12-12T19:21:15.607Z,12.63
2022-12-12T19:23:43.106Z,13.00
2022-12-12T19:26:18.443Z,14.80
2022-12-12T19:28:45.687Z,14.83
2022-12-12T19:31:15.732Z,15.40
2022-12-12T19:33:43.965Z,16.47
2022-12-12T19:36:16.765Z,16.67
2022-12-12T19:38:44.128Z,15.50
2022-12-12T19:41:13.976Z,13.80
2022-12-12T19:43:45.179Z,12.40
2022-12-12T19:46:17.111Z,11.73
2022-12-12T19:48:44.421Z,11.90
2022-12-12T19:51:17.841Z,12.07
2022-12-12T19:53:47.207Z,12.23
2022-12-12T19:56:17.366Z,13.53
2022-12-12T19:58:44.235Z,11.90
2022-12-12T20:01:16.427Z,14.00
2022-12-12T20:03:42.826Z,13.67
2022-12-12T20:06:11.426Z,12.53
2022-12-12T20:08:38.184Z,12.30
2022-12-12T20:11:06.812Z,11.37
2022-12-12T20:13:34.009Z,13.50
2022-12-12T20:16:08.349Z,11.87
2022-12-12T20:18:35.093Z,10.67
2022-12-12T20:21:03.411Z,12.17
2022-12-12T20:23:31.927Z,11.93
2022-12-12T20:25:58.797Z,10.10
2022-12-12T20:28:25.211Z,12.37
2022-12-12T20:31:01.918Z,12.83
2022-12-12T20:33:28.449Z,12.03
2022-12-12T20:35:54.811Z,11.20
2022-12-12T20:38:21.279Z,13.77
2022-12-12T20:40:49.158Z,14.07
2022-12-12T20:43:15.588Z,14.80
2022-12-12T20:45:41.970Z,14.97
2022-12-12T20:48:08.454Z,13.10
2022-12-12T20:50:34.851Z,13.87
2022-12-12T20:53:01.241Z,11.83
2022-12-12T20:55:27.953Z,11.77
2022-12-12T20:57:55.153Z,12.17
2022-12-12T21:00:25.349Z,12.97
2022-12-12T21:02:51.958Z,12.17
2022-12-12T21:05:18.369Z,13.40
2022-12-12T21:07:44.766Z,15.50
2022-12-12T21:10:11.198Z,14.87
2022-12-12T21:12:37.633Z,14.60
2022-12-12T21:15:04.682Z,14.40
2022-12-12T21:17:31.343Z,14.37
2022-12-12T21:20:00.508Z,14.90
2022-12-12T21:22:31.172Z,15.17
2022-12-12T21:24:57.609Z,14.90
2022-12-12T21:27:24.941Z,15.87
2022-12-12T21:29:51.393Z,16.80
2022-12-12T21:32:17.840Z,15.87
2022-12-12T21:34:44.267Z,17.90
2022-12-12T21:37:10.677Z,15.50
2022-12-12T21:39:37.202Z,14.53
2022-12-12T21:42:03.646Z,14.83
2022-12-12T21:44:30.135Z,15.20
2022-12-12T21:46:56.581Z,18.83
2022-12-12T21:49:30.973Z,17.10
2022-12-12T21:52:03.403Z,17.03
2022-12-12T21:54:30.648Z,16.57
2022-12-12T21:57:00.673Z,14.87
2022-12-12T21:59:28.231Z,15.60
2022-12-12T22:01:56.282Z,14.90
2022-12-12T22:04:23.059Z,14.90
2022-12-12T22:06:49.634Z,15.23
2022-12-12T22:09:16.210Z,14.43
2022-12-12T22:11:49.240Z,14.80
2022-12-12T22:14:19.665Z,15.03
2022-12-12T22:16:46.149Z,15.60
2022-12-12T22:19:14.123Z,14.57
2022-12-12T22:21:40.893Z,14.70
2022-12-12T22:24:07.657Z,13.90
2022-12-12T22:26:38.091Z,12.53
2022-12-12T22:29:07.386Z,13.17
2022-12-12T22:31:37.431Z,12.67
2022-12-12T22:34:18.374Z,13.00
2022-12-12T22:36:46.194Z,12.40
2022-12-12T22:39:24.578Z,13.10
2022-12-12T22:41:51.431Z,12.47
2022-12-12T22:44:20.033Z,11.50
2022-12-12T22:46:48.203Z,13.60
2022-12-12T22:49:19.242Z,12.50
2022-12-12T22:51:47.011Z,17.17
2022-12-12T22:54:13.578Z,13.97
2022-12-12T22:56:41.277Z,13.87
2022-12-12T22:59:08.464Z,15.07
2022-12-12T23:01:34.941Z,17.00
2022-12-12T23:04:01.482Z,18.70
2022-12-12T23:06:33.406Z,19.97
2022-12-12T23:09:03.404Z,18.60
2022-12-12T23:11:31.830Z,18.63
2022-12-12T23:14:07.457Z,17.60
2022-12-12T23:16:35.461Z,15.37
2022-12-12T23:19:04.675Z,18.77
2022-12-12T23:21:31.235Z,15.57
2022-12-12T23:23:57.660Z,15.97
2022-12-12T23:26:27.132Z,16.33
2022-12-12T23:28:53.555Z,15.80
2022-12-12T23:31:23.351Z,18.23
2022-12-12T23:33:57.734Z,22.40
2022-12-12T23:36:24.783Z,19.03
2022-12-12T23:38:56.278Z,18.10
2022-12-12T23:41:22.973Z,15.67
2022-12-12T23:43:50.734Z,14.73
2022-12-12T23:46:31.276Z,15.60
2022-12-12T23:49:07.561Z,14.37
2022-12-12T23:51:36.816Z,12.30
2022-12-12T23:54:06.066Z,13.77
2022-12-12T23:56:32.790Z,15.80
2022-12-12T23:59:00.046Z,14.23
